Time;durP1;ratioP1;P1;durP2;ratioP2;P2;SDS_P1;SDS_P2;PMS_P1;PMS_P2;Temp;Humidity;BMP_temperature;BMP_pressure;BME280_temperature;BME280_humidity;BME280_pressure;Samples;Min_cycle;Max_cycle;Signal;HPM_P1;HPM_P2
2024/02/13 05:30:24;;;;;;;0.10;0.10;;;7.60;87.20;;;;;;6154545;23;20028;31
2024/02/13 05:32:51;;;;;;;0.10;0.10;;;7.70;87.30;;;;;;6090166;23;20070;-78
2024/02/13 05:35:18;;;;;;;0.10;0.10;;;7.70;87.40;;;;;;6071580;23;19999;-78
2024/02/13 05:37:43;;;;;;;0.20;0.20;;;7.70;87.50;;;;;;6071155;23;20010;-77
2024/02/13 05:40:10;;;;;;;0.20;0.20;;;7.70;87.60;;;;;;6071951;23;20037;-78
2024/02/13 05:42:36;;;;;;;0.10;0.10;;;7.80;87.40;;;;;;6071416;23;20010;-77
2024/02/13 05:45:04;;;;;;;0.10;0.10;;;7.80;87.40;;;;;;6046784;23;20010;-77
2024/02/13 05:47:34;;;;;;;0.17;0.17;;;7.80;87.60;;;;;;6093996;23;20069;-77
2024/02/13 05:50:03;;;;;;;0.10;0.10;;;7.90;87.60;;;;;;6045993;23;20014;-78
2024/02/13 05:52:30;;;;;;;0.10;0.10;;;7.90;87.50;;;;;;6046056;23;20029;-78
2024/02/13 05:54:56;;;;;;;0.10;0.10;;;8.00;87.50;;;;;;6046357;23;20458;-78
2024/02/13 05:57:22;;;;;;;0.10;0.10;;;8.00;87.60;;;;;;6071132;23;20003;-77
2024/02/13 05:59:48;;;;;;;0.10;0.10;;;8.00;87.70;;;;;;6093605;23;20015;-78
2024/02/13 06:02:14;;;;;;;0.10;0.10;;;8.00;87.80;;;;;;6070890;23;20003;-77
2024/02/13 06:04:41;;;;;;;0.10;0.10;;;8.10;87.70;;;;;;6071325;23;20013;-78
2024/02/13 06:07:08;;;;;;;0.10;0.10;;;8.20;87.60;;;;;;6093964;23;20014;-78
2024/02/13 06:09:34;;;;;;;0.10;0.10;;;8.20;87.50;;;;;;6045764;23;20013;-76
2024/02/13 06:12:00;;;;;;;0.10;0.10;;;8.30;87.50;;;;;;6071648;23;20054;-76
2024/02/13 06:14:25;;;;;;;0.10;0.10;;;8.30;87.40;;;;;;6071751;23;20010;-89
2024/02/13 06:16:54;;;;;;;0.10;0.10;;;8.30;87.40;;;;;;6046181;23;20010;-81
2024/02/13 06:19:19;;;;;;;0.10;0.10;;;8.30;87.40;;;;;;6093531;23;20336;-77
2024/02/13 06:21:45;;;;;;;0.10;0.10;;;8.30;87.50;;;;;;6071720;23;20017;-79
2024/02/13 06:24:10;;;;;;;0.10;0.10;;;8.30;87.60;;;;;;6071461;23;20121;-78
2024/02/13 06:26:37;;;;;;;0.10;0.10;;;8.30;87.60;;;;;;6071368;23;20003;-79
2024/02/13 06:29:03;;;;;;;0.10;0.10;;;8.30;87.80;;;;;;6069956;23;20351;-78
2024/02/13 06:31:32;;;;;;;0.10;0.10;;;8.40;87.70;;;;;;6086024;23;20021;-78
2024/02/13 06:33:58;;;;;;;0.10;0.10;;;8.40;87.80;;;;;;6073562;23;20002;-78
2024/02/13 06:36:25;;;;;;;0.10;0.10;;;8.40;87.90;;;;;;6100550;23;20586;-78
2024/02/13 06:38:54;;;;;;;0.10;0.10;;;8.40;87.80;;;;;;6073828;23;20010;-78
2024/02/13 06:41:19;;;;;;;0.10;0.10;;;8.40;87.80;;;;;;6075241;23;20013;-78
2024/02/13 06:43:45;;;;;;;0.10;0.10;;;8.40;87.80;;;;;;6100080;23;20427;-78
2024/02/13 06:46:12;;;;;;;0.10;0.10;;;8.40;87.80;;;;;;6100037;23;20002;-77
2024/02/13 06:48:39;;;;;;;0.10;0.10;;;8.40;87.80;;;;;;6098318;23;20002;-78
2024/02/13 06:51:05;;;;;;;0.17;0.17;;;8.40;87.80;;;;;;6074235;23;20010;-78
2024/02/13 06:53:31;;;;;;;0.10;0.10;;;8.40;87.70;;;;;;6099295;23;19999;-79
2024/02/13 06:55:56;;;;;;;0.10;0.10;;;8.40;87.70;;;;;;6073266;23;20006;-78
2024/02/13 06:58:22;;;;;;;0.10;0.10;;;8.40;87.80;;;;;;6099410;23;20002;-78
2024/02/13 07:00:47;;;;;;;0.10;0.10;;;8.30;87.80;;;;;;6100569;23;20446;-78
2024/02/13 07:03:13;;;;;;;0.10;0.10;;;8.30;87.90;;;;;;6100301;23;20009;-78
2024/02/13 07:05:39;;;;;;;0.10;0.10;;;8.30;88.00;;;;;;6099894;23;20006;-78
2024/02/13 07:08:04;;;;;;;0.10;0.10;;;8.30;88.00;;;;;;6099558;23;20081;-79
2024/02/13 07:10:30;;;;;;;0.10;0.10;;;8.30;87.90;;;;;;6099448;23;20351;-78
2024/02/13 07:12:58;;;;;;;0.10;0.10;;;8.30;87.90;;;;;;6099471;23;20002;-78
2024/02/13 07:15:23;;;;;;;0.15;0.15;;;8.30;87.80;;;;;;6100438;23;20006;-78
2024/02/13 07:17:49;;;;;;;0.10;0.10;;;8.30;87.80;;;;;;6099994;23;19998;-78
2024/02/13 07:20:15;;;;;;;0.10;0.10;;;8.30;87.80;;;;;;6100437;23;20336;-78
2024/02/13 07:22:40;;;;;;;0.10;0.10;;;8.30;87.80;;;;;;6100032;23;20316;-78
2024/02/13 07:25:08;;;;;;;0.10;0.10;;;8.30;87.80;;;;;;6074290;23;20007;-78
2024/02/13 07:27:38;;;;;;;0.10;0.10;;;8.30;87.90;;;;;;6100152;23;20316;-79
2024/02/13 07:30:07;;;;;;;0.20;0.20;;;8.30;87.80;;;;;;6099985;23;20003;-78
2024/02/13 07:32:33;;;;;;;0.10;0.10;;;8.30;87.80;;;;;;6101584;23;20018;-78
2024/02/13 07:35:03;;;;;;;0.17;0.17;;;8.30;87.70;;;;;;6075880;23;20343;-78
2024/02/13 07:37:28;;;;;;;0.10;0.10;;;8.30;87.80;;;;;;6101676;23;20034;-78
2024/02/13 07:39:54;;;;;;;0.10;0.10;;;8.40;87.60;;;;;;6076189;23;20017;-78
2024/02/13 07:42:21;;;;;;;0.10;0.10;;;8.40;87.70;;;;;;6101865;23;20037;-78
2024/02/13 07:44:47;;;;;;;0.10;0.10;;;8.40;87.60;;;;;;6101506;23;20011;-78
2024/02/13 07:47:13;;;;;;;0.10;0.10;;;8.40;87.60;;;;;;6101637;23;20058;-78
2024/02/13 07:49:39;;;;;;;0.10;0.10;;;8.50;87.60;;;;;;6102004;23;20002;-79
2024/02/13 07:52:05;;;;;;;0.10;0.10;;;8.50;87.50;;;;;;6101675;23;20037;-78
2024/02/13 07:54:32;;;;;;;0.10;0.10;;;8.50;87.50;;;;;;6075842;23;20002;-79
2024/02/13 07:56:58;;;;;;;0.10;0.10;;;8.50;87.50;;;;;;6101565;23;20006;-79
2024/02/13 07:59:24;;;;;;;0.10;0.10;;;8.50;87.50;;;;;;6101501;23;20101;-78
2024/02/13 08:01:49;;;;;;;0.10;0.10;;;8.50;87.50;;;;;;6101787;23;20034;-78
2024/02/13 08:04:15;;;;;;;0.10;0.10;;;8.50;87.40;;;;;;6101111;23;20014;-79
2024/02/13 08:06:41;;;;;;;0.10;0.10;;;8.60;87.40;;;;;;6101566;23;20054;-78
2024/02/13 08:09:08;;;;;;;0.10;0.10;;;8.60;87.40;;;;;;6101749;23;20034;-78
2024/02/13 08:11:34;;;;;;;0.10;0.10;;;8.60;87.30;;;;;;6101622;23;20006;-78
2024/02/13 08:13:59;;;;;;;0.10;0.10;;;8.60;87.20;;;;;;6100827;23;20009;-78
2024/02/13 08:16:29;;;;;;;0.10;0.10;;;8.70;87.10;;;;;;6102101;23;20002;-79
2024/02/13 08:18:55;;;;;;;0.10;0.10;;;8.70;87.10;;;;;;6101295;23;20319;-78
2024/02/13 08:21:22;;;;;;;0.10;0.10;;;8.80;86.90;;;;;;6101390;23;20006;-78
2024/02/13 08:23:47;;;;;;;0.10;0.10;;;8.80;86.80;;;;;;6101370;23;20012;-79
2024/02/13 08:26:13;;;;;;;0.10;0.10;;;8.80;86.80;;;;;;6101354;23;20002;-78
2024/02/13 08:28:42;;;;;;;0.10;0.10;;;8.80;86.60;;;;;;6101540;23;20498;-78
2024/02/13 08:31:09;;;;;;;0.13;0.13;;;8.90;86.40;;;;;;6101226;23;20093;-78
2024/02/13 08:33:35;;;;;;;0.20;0.20;;;9.00;86.20;;;;;;6100225;23;20017;-79
2024/02/13 08:36:02;;;;;;;0.20;0.20;;;9.20;85.60;;;;;;6101477;23;19999;-78
2024/02/13 08:38:27;;;;;;;0.10;0.10;;;9.30;85.30;;;;;;6124041;23;20002;-78
2024/02/13 08:40:53;;;;;;;0.10;0.10;;;9.30;85.00;;;;;;6076102;23;20379;-78
2024/02/13 08:43:19;;;;;;;0.10;0.10;;;9.30;84.90;;;;;;6100721;23;20060;-79
2024/02/13 08:45:44;;;;;;;0.10;0.10;;;9.20;84.90;;;;;;6100938;23;20033;-78
2024/02/13 08:48:10;;;;;;;0.10;0.10;;;9.00;85.30;;;;;;6101348;23;20007;-78
2024/02/13 08:50:36;;;;;;;0.10;0.10;;;8.90;85.30;;;;;;6101443;23;20061;-78
2024/02/13 08:53:01;;;;;;;0.10;0.10;;;8.90;85.50;;;;;;6100267;23;20007;-79
2024/02/13 08:55:28;;;;;;;0.15;0.15;;;9.00;85.70;;;;;;6101400;23;20005;-78
2024/02/13 08:57:54;;;;;;;0.10;0.10;;;9.10;85.60;;;;;;6075380;23;20057;-78
2024/02/13 09:00:20;;;;;;;0.10;0.10;;;9.30;85.30;;;;;;6075469;23;20013;-78
2024/02/13 09:02:47;;;;;;;0.20;0.20;;;9.30;85.00;;;;;;6100681;23;20439;-79
2024/02/13 09:05:13;;;;;;;0.10;0.10;;;9.50;84.80;;;;;;6101253;23;20030;-78
2024/02/13 09:07:40;;;;;;;0.10;0.10;;;9.50;84.80;;;;;;6101079;23;19999;-79
2024/02/13 09:10:07;;;;;;;0.10;0.10;;;9.50;84.70;;;;;;6075705;23;20006;-78
2024/02/13 09:12:33;;;;;;;0.10;0.10;;;9.40;84.90;;;;;;6100872;23;20012;-78
2024/02/13 09:14:59;;;;;;;0.10;0.10;;;9.30;85.20;;;;;;6075373;23;20009;-78
2024/02/13 09:17:26;;;;;;;0.20;0.20;;;9.40;85.60;;;;;;6100673;23;20006;-78
2024/02/13 09:19:51;;;;;;;0.17;0.17;;;9.50;85.60;;;;;;6100454;23;20621;-78
2024/02/13 09:22:17;;;;;;;0.10;0.10;;;9.60;85.40;;;;;;6100830;23;20002;-78
2024/02/13 09:24:50;;;;;;;0.10;0.10;;;9.70;85.80;;;;;;6100527;23;20057;-78
2024/02/13 09:27:18;;;;;;;0.10;0.10;;;9.70;85.60;;;;;;6100567;23;20494;-78
2024/02/13 09:29:44;;;;;;;0.10;0.10;;;9.70;85.80;;;;;;6100731;23;20003;-78
2024/02/13 09:32:10;;;;;;;0.10;0.10;;;9.70;85.90;;;;;;6100930;23;20014;-78
2024/02/13 09:34:36;;;;;;;0.10;0.10;;;9.60;86.30;;;;;;6100152;23;20033;-78
2024/02/13 09:37:02;;;;;;;0.10;0.10;;;9.60;86.40;;;;;;6101043;23;19999;-78
2024/02/13 09:39:28;;;;;;;0.10;0.10;;;9.50;86.50;;;;;;6075243;23;20002;-78
2024/02/13 09:41:55;;;;;;;0.10;0.10;;;9.50;86.70;;;;;;6100633;23;20318;-78
2024/02/13 09:44:23;;;;;;;0.10;0.10;;;9.50;86.80;;;;;;6100806;23;20402;-78
2024/02/13 09:46:51;;;;;;;0.10;0.10;;;9.60;86.70;;;;;;6100067;23;20002;-78
2024/02/13 09:49:17;;;;;;;0.10;0.10;;;9.60;86.80;;;;;;6100622;23;20490;-78
2024/02/13 09:51:48;;;;;;;0.10;0.10;;;9.60;86.70;;;;;;6074680;23;20069;-78
2024/02/13 09:54:15;;;;;;;0.10;0.10;;;9.70;86.50;;;;;;6100606;23;20006;-79
2024/02/13 09:56:41;;;;;;;0.13;0.13;;;9.80;86.50;;;;;;6100695;23;19999;-78
2024/02/13 09:59:07;;;;;;;0.10;0.10;;;9.80;86.30;;;;;;6100578;23;20334;-78
2024/02/13 10:01:32;;;;;;;0.20;0.20;;;9.80;86.30;;;;;;6074629;23;20010;-78
2024/02/13 10:03:59;;;;;;;0.10;0.10;;;9.80;86.30;;;;;;6100309;23;20084;-78
2024/02/13 10:06:24;;;;;;;0.20;0.20;;;9.90;86.30;;;;;;6100648;23;20029;-78
2024/02/13 10:08:53;;;;;;;0.10;0.10;;;10.00;86.30;;;;;;6074992;23;20010;-78
2024/02/13 10:11:36;;;;;;;0.20;0.20;;;10.10;85.90;;;;;;6100551;23;20002;-78
2024/02/13 10:14:03;;;;;;;0.10;0.10;;;10.30;85.30;;;;;;6123416;23;20006;-78
2024/02/13 10:16:28;;;;;;;0.10;0.10;;;10.40;85.00;;;;;;6100559;23;19999;-78
2024/02/13 10:19:01;;;;;;;0.10;0.10;;;10.50;85.10;;;;;;6099858;23;19998;-78
2024/02/13 10:21:29;;;;;;;0.10;0.10;;;10.60;84.70;;;;;;6075005;23;20010;-78
2024/02/13 10:24:06;;;;;;;0.10;0.10;;;10.60;84.80;;;;;;6100350;23;20443;-78
2024/02/13 10:26:32;;;;;;;0.10;0.10;;;10.50;85.00;;;;;;6100271;23;20012;-78
2024/02/13 10:28:58;;;;;;;0.10;0.10;;;10.40;85.30;;;;;;6074698;23;20065;-78
2024/02/13 10:31:25;;;;;;;0.10;0.10;;;10.30;85.60;;;;;;6074885;23;20046;-78
2024/02/13 10:33:51;;;;;;;0.10;0.10;;;10.40;85.70;;;;;;6099989;23;20070;-79
2024/02/13 10:36:17;;;;;;;0.10;0.10;;;10.30;85.90;;;;;;6074921;23;20003;-78
2024/02/13 10:38:49;;;;;;;0.10;0.10;;;10.30;86.10;;;;;;6074517;23;20003;-79
2024/02/13 10:41:23;;;;;;;0.10;0.10;;;10.40;85.80;;;;;;6100537;23;20002;-78
2024/02/13 10:43:52;;;;;;;0.10;0.10;;;10.50;85.60;;;;;;6100265;23;20003;-78
2024/02/13 10:46:23;;;;;;;0.10;0.10;;;10.50;85.40;;;;;;6099868;23;20012;-78
2024/02/13 10:49:24;;;;;;;0.10;0.10;;;10.70;85.50;;;;;;6100314;23;20009;-78
2024/02/13 10:51:50;;;;;;;0.10;0.10;;;10.70;85.30;;;;;;6099964;23;20002;-78
2024/02/13 10:54:18;;;;;;;0.10;0.10;;;10.80;85.00;;;;;;6123193;23;20071;-78
2024/02/13 10:56:45;;;;;;;0.10;0.10;;;10.80;85.00;;;;;;6100151;23;20005;-78
2024/02/13 10:59:12;;;;;;;0.10;0.10;;;10.80;85.00;;;;;;6100180;23;20003;-78
2024/02/13 11:01:42;;;;;;;0.17;0.17;;;10.70;85.10;;;;;;6099903;23;20339;-78
2024/02/13 11:04:09;;;;;;;0.10;0.10;;;10.80;85.30;;;;;;6100388;23;20411;-78
2024/02/13 11:06:35;;;;;;;0.10;0.10;;;10.90;84.90;;;;;;6100745;23;20007;-79
2024/02/13 11:09:01;;;;;;;0.10;0.10;;;11.00;84.70;;;;;;6102742;23;20011;-79
2024/02/13 11:11:27;;;;;;;0.10;0.10;;;11.10;84.70;;;;;;6076874;23;20010;-78
2024/02/13 11:13:53;;;;;;;0.10;0.10;;;11.20;84.40;;;;;;6102021;23;19998;-78
2024/02/13 11:16:20;;;;;;;0.10;0.10;;;11.20;84.40;;;;;;6101454;23;20002;-78
2024/02/13 11:18:51;;;;;;;0.10;0.10;;;11.20;84.30;;;;;;6102131;23;20002;-78
2024/02/13 11:21:23;;;;;;;0.10;0.10;;;11.20;84.50;;;;;;6101843;23;20006;-78
2024/02/13 11:24:00;;;;;;;0.10;0.10;;;11.10;84.50;;;;;;6102254;23;20006;-78
2024/02/13 11:26:34;;;;;;;0.20;0.20;;;11.20;84.70;;;;;;6101352;23;20094;-78
2024/02/13 11:29:10;;;;;;;0.10;0.10;;;11.20;84.50;;;;;;6102207;23;20002;-78
2024/02/13 11:31:36;;;;;;;0.10;0.10;;;11.20;84.40;;;;;;6101520;23;20145;-78
2024/02/13 11:34:08;;;;;;;0.10;0.10;;;11.20;84.60;;;;;;6101692;23;20007;-78
2024/02/13 11:36:34;;;;;;;0.10;0.10;;;11.30;84.40;;;;;;6124811;23;20058;-78
2024/02/13 11:39:07;;;;;;;0.10;0.10;;;11.30;84.10;;;;;;6076840;23;20007;-78
2024/02/13 11:41:36;;;;;;;0.10;0.10;;;11.30;84.30;;;;;;6076719;23;20006;-78
2024/02/13 11:44:09;;;;;;;0.10;0.10;;;11.20;84.60;;;;;;6101487;23;20239;-78
2024/02/13 11:46:50;;;;;;;0.10;0.10;;;11.20;84.80;;;;;;6102030;23;20016;-78
2024/02/13 11:49:16;;;;;;;0.10;0.10;;;11.20;84.80;;;;;;6101627;23;20012;-78
2024/02/13 11:51:41;;;;;;;0.10;0.10;;;11.30;84.70;;;;;;6076046;23;20074;-78
2024/02/13 11:54:08;;;;;;;0.10;0.10;;;11.20;84.80;;;;;;6101792;23;19998;-78
2024/02/13 11:56:35;;;;;;;0.10;0.10;;;11.20;84.70;;;;;;6101613;23;20010;-78
2024/02/13 11:59:07;;;;;;;0.10;0.10;;;11.30;84.70;;;;;;6101680;23;20007;-78
2024/02/13 12:01:36;;;;;;;0.10;0.10;;;11.30;84.80;;;;;;6101567;23;20003;-78
2024/02/13 12:04:03;;;;;;;0.10;0.10;;;11.30;84.80;;;;;;6101721;23;20002;-78
2024/02/13 12:06:29;;;;;;;0.10;0.10;;;11.30;84.50;;;;;;6124861;23;20006;-78
2024/02/13 12:08:58;;;;;;;0.10;0.10;;;11.40;84.60;;;;;;6100958;23;20007;-78
2024/02/13 12:11:25;;;;;;;0.10;0.10;;;11.50;84.60;;;;;;6101548;23;20024;-78
2024/02/13 12:13:50;;;;;;;0.10;0.10;;;11.50;84.40;;;;;;6101106;23;20427;-78
2024/02/13 12:16:17;;;;;;;0.10;0.10;;;11.50;84.30;;;;;;6102081;23;20006;-78
2024/02/13 12:18:45;;;;;;;0.10;0.10;;;11.50;84.40;;;;;;6075407;23;20006;-78
2024/02/13 12:21:14;;;;;;;0.10;0.10;;;11.50;84.50;;;;;;6100945;23;20003;-78
2024/02/13 12:23:44;;;;;;;0.10;0.10;;;11.60;84.40;;;;;;6101487;23;20003;-78
2024/02/13 12:26:10;;;;;;;0.10;0.10;;;11.60;84.60;;;;;;6101622;23;20061;-78
2024/02/13 12:28:36;;;;;;;0.10;0.10;;;11.60;84.40;;;;;;6075640;23;20010;-78
2024/02/13 12:31:02;;;;;;;0.10;0.10;;;11.60;84.40;;;;;;6101243;23;20026;-78
2024/02/13 12:33:28;;;;;;;0.10;0.10;;;11.60;84.50;;;;;;6100986;23;20811;-78
2024/02/13 12:36:18;;;;;;;0.10;0.10;;;11.60;84.70;;;;;;6076264;23;20006;-78
2024/02/13 12:38:45;;;;;;;0.10;0.10;;;11.60;84.60;;;;;;6124159;23;20007;-78
2024/02/13 12:41:12;;;;;;;0.10;0.10;;;11.60;84.80;;;;;;6101198;23;20082;-78
2024/02/13 12:43:40;;;;;;;0.10;0.10;;;11.60;84.90;;;;;;6101199;23;20006;-78
2024/02/13 12:46:05;;;;;;;0.10;0.10;;;11.60;84.90;;;;;;6101345;23;20010;-78
2024/02/13 12:48:42;;;;;;;0.10;0.10;;;11.50;85.00;;;;;;6101097;23;20044;-78
2024/02/13 12:51:11;;;;;;;0.10;0.10;;;11.50;85.30;;;;;;6100953;23;20037;-82
2024/02/13 12:53:39;;;;;;;0.10;0.10;;;11.50;85.60;;;;;;6100457;23;20002;-79
2024/02/13 12:56:05;;;;;;;0.10;0.10;;;11.60;85.80;;;;;;6075779;23;20003;-78
2024/02/13 12:58:32;;;;;;;0.10;0.10;;;11.50;86.60;;;;;;6100827;23;19998;-78
2024/02/13 13:01:03;;;;;;;0.10;0.10;;;11.50;86.70;;;;;;6101278;23;20006;-78
2024/02/13 13:03:33;;;;;;;0.10;0.10;;;11.50;87.10;;;;;;6099321;23;20006;-78
2024/02/13 13:05:59;;;;;;;0.10;0.10;;;11.50;87.40;;;;;;6074989;23;20021;-78
2024/02/13 13:08:25;;;;;;;0.10;0.10;;;11.50;87.80;;;;;;6074943;23;20010;-78
2024/02/13 13:10:51;;;;;;;0.10;0.10;;;11.50;88.00;;;;;;6100945;23;20061;-78
2024/02/13 13:13:17;;;;;;;0.10;0.10;;;11.50;88.20;;;;;;6075323;23;20030;-78
2024/02/13 13:15:46;;;;;;;0.10;0.10;;;11.50;88.30;;;;;;6100199;23;20053;-78
2024/02/13 13:18:12;;;;;;;0.10;0.10;;;11.50;88.40;;;;;;6099823;23;20007;-78
2024/02/13 13:20:44;;;;;;;0.10;0.10;;;11.50;88.40;;;;;;6100834;23;20009;-78
2024/02/13 13:23:15;;;;;;;0.10;0.10;;;11.60;88.60;;;;;;6075262;23;20031;-78
2024/02/13 13:25:45;;;;;;;0.10;0.10;;;11.70;88.60;;;;;;6100640;23;20014;-78
2024/02/13 13:28:16;;;;;;;0.10;0.10;;;11.70;88.70;;;;;;6100555;23;20086;-78
2024/02/13 13:30:46;;;;;;;0.10;0.10;;;11.70;88.80;;;;;;6099875;23;20011;-78
2024/02/13 13:33:19;;;;;;;0.10;0.10;;;11.80;89.00;;;;;;6100400;23;20542;-79
2024/02/13 13:35:48;;;;;;;0.10;0.10;;;11.80;89.00;;;;;;6100719;23;20077;-78
2024/02/13 13:38:16;;;;;;;0.10;0.10;;;11.80;89.00;;;;;;6100376;23;20050;-78
2024/02/13 13:40:43;;;;;;;0.10;0.10;;;11.80;89.10;;;;;;6100546;23;20022;-78
2024/02/13 13:43:10;;;;;;;0.10;0.10;;;11.80;89.30;;;;;;6074770;23;20002;-78
2024/02/13 13:45:37;;;;;;;0.10;0.10;;;11.80;89.20;;;;;;6100218;23;20009;-78
2024/02/13 13:48:14;;;;;;;0.10;0.10;;;11.80;89.60;;;;;;6100256;23;19999;-78
2024/02/13 13:50:40;;;;;;;0.10;0.10;;;11.70;89.60;;;;;;6100512;23;20557;-77
2024/02/13 13:53:08;;;;;;;0.10;0.10;;;11.70;89.90;;;;;;6100294;23;20007;-78
2024/02/13 13:55:35;;;;;;;0.10;0.10;;;11.70;90.10;;;;;;6097634;23;20002;-78
2024/02/13 13:58:01;;;;;;;0.10;0.10;;;11.60;90.20;;;;;;6099069;23;20025;-78
2024/02/13 14:00:29;;;;;;;0.10;0.10;;;11.50;90.50;;;;;;6099947;23;20006;-78
2024/02/13 14:02:55;;;;;;;0.10;0.10;;;11.50;90.80;;;;;;6099230;23;20009;-78
2024/02/13 14:05:23;;;;;;;0.10;0.10;;;11.50;90.70;;;;;;6099615;23;20014;-78
2024/02/13 14:07:49;;;;;;;0.10;0.10;;;11.50;90.90;;;;;;6099481;23;20424;-78
2024/02/13 14:10:16;;;;;;;0.10;0.10;;;11.50;90.70;;;;;;6099447;23;20003;-78
2024/02/13 14:12:43;;;;;;;0.10;0.10;;;11.60;90.70;;;;;;6099527;23;20003;-78
2024/02/13 14:15:09;;;;;;;0.10;0.10;;;11.60;90.70;;;;;;6099523;23;20392;-78
2024/02/13 14:17:36;;;;;;;0.10;0.10;;;11.60;90.70;;;;;;6122529;23;20334;-78
2024/02/13 14:20:05;;;;;;;0.10;0.10;;;11.60;90.70;;;;;;6099215;23;20006;-77
2024/02/13 14:22:33;;;;;;;0.10;0.10;;;11.60;90.90;;;;;;6099525;23;20526;-78
2024/02/13 14:25:00;;;;;;;0.10;0.10;;;11.70;91.00;;;;;;6073946;23;20010;-78
2024/02/13 14:27:28;;;;;;;0.10;0.10;;;11.60;91.20;;;;;;6099529;23;20006;-78
2024/02/13 14:29:53;;;;;;;0.10;0.10;;;11.60;91.40;;;;;;6073924;23;20006;-78
2024/02/13 14:32:19;;;;;;;0.10;0.10;;;11.70;91.40;;;;;;6098967;23;20454;-78
2024/02/13 14:34:45;;;;;;;0.10;0.10;;;11.60;91.50;;;;;;6099439;23;20011;-78
2024/02/13 14:37:10;;;;;;;0.10;0.10;;;11.60;91.90;;;;;;6100411;23;19998;-78
2024/02/13 14:39:37;;;;;;;0.10;0.10;;;11.60;91.70;;;;;;6074749;23;20112;-78
2024/02/13 14:42:03;;;;;;;0.10;0.10;;;11.70;91.60;;;;;;6099357;23;20010;-78
2024/02/13 14:44:33;;;;;;;0.10;0.10;;;11.80;91.60;;;;;;6100113;23;20006;-78
2024/02/13 14:47:02;;;;;;;0.10;0.10;;;11.70;91.70;;;;;;6100401;23;20013;-78
2024/02/13 14:49:32;;;;;;;0.10;0.10;;;11.80;91.60;;;;;;6099447;23;20147;-78
2024/02/13 14:51:58;;;;;;;0.10;0.10;;;11.70;91.70;;;;;;6099827;23;20018;-78
2024/02/13 14:54:24;;;;;;;0.10;0.10;;;11.80;91.80;;;;;;6099599;23;20050;-78
2024/02/13 14:56:50;;;;;;;0.10;0.10;;;11.80;91.90;;;;;;6100399;23;19998;-78
2024/02/13 14:59:16;;;;;;;0.10;0.10;;;11.80;91.90;;;;;;6100064;23;20089;-78
2024/02/13 15:01:42;;;;;;;0.10;0.10;;;11.80;91.80;;;;;;6099586;23;20003;-78
2024/02/13 15:04:08;;;;;;;0.10;0.10;;;11.90;91.80;;;;;;6074805;23;20010;-77
2024/02/13 15:06:34;;;;;;;0.10;0.10;;;11.80;92.00;;;;;;6100033;23;20017;-78
2024/02/13 15:09:00;;;;;;;0.10;0.10;;;11.90;91.90;;;;;;6099841;23;20010;-78
2024/02/13 15:11:30;;;;;;;0.10;0.10;;;11.90;91.80;;;;;;6074329;23;20060;-78
2024/02/13 15:13:57;;;;;;;0.10;0.10;;;12.00;91.70;;;;;;6099658;23;19999;-77
2024/02/13 15:16:22;;;;;;;0.10;0.10;;;12.00;91.70;;;;;;6100215;23;20006;-78
2024/02/13 15:18:49;;;;;;;0.10;0.10;;;12.00;91.80;;;;;;6073742;23;20006;-77
2024/02/13 15:21:15;;;;;;;0.10;0.10;;;12.00;91.70;;;;;;6099753;23;20008;-77
2024/02/13 15:23:41;;;;;;;0.10;0.10;;;12.00;91.70;;;;;;6099852;23;20022;-78
2024/02/13 15:26:07;;;;;;;0.10;0.10;;;12.10;91.60;;;;;;6099816;23;20009;-77
2024/02/13 15:28:35;;;;;;;0.10;0.10;;;12.10;91.50;;;;;;6098810;23;20026;-77
2024/02/13 15:31:00;;;;;;;0.10;0.10;;;12.10;91.50;;;;;;6099753;23;20347;-78
2024/02/13 15:33:26;;;;;;;0.10;0.10;;;12.10;91.50;;;;;;6099345;23;20006;-77
2024/02/13 15:36:01;;;;;;;0.10;0.10;;;12.20;91.60;;;;;;6100040;23;20003;-78
2024/02/13 15:47:03;;;;;;;0.10;0.10;;;12.20;91.70;;;;;;6099548;23;20077;-79
2024/02/13 15:49:30;;;;;;;0.10;0.10;;;12.30;91.60;;;;;;6099535;23;20006;-79
2024/02/13 15:51:56;;;;;;;0.10;0.10;;;12.30;91.40;;;;;;6099924;23;20021;-78
2024/02/13 15:54:22;;;;;;;0.10;0.10;;;12.30;91.40;;;;;;6101284;23;20073;-78
2024/02/13 15:56:57;;;;;;;0.10;0.10;;;12.30;91.50;;;;;;6101812;23;20003;-77
2024/02/13 15:59:24;;;;;;;0.10;0.10;;;12.30;91.40;;;;;;6099965;23;20081;-78
2024/02/13 16:01:50;;;;;;;0.10;0.10;;;12.30;91.50;;;;;;6100291;23;20085;-78
2024/02/13 16:04:18;;;;;;;0.10;0.10;;;12.30;91.40;;;;;;6076158;23;20479;-78
2024/02/13 16:06:52;;;;;;;0.10;0.10;;;12.30;91.40;;;;;;6101074;23;20443;-78
2024/02/13 16:09:18;;;;;;;0.10;0.10;;;12.30;91.40;;;;;;6124005;23;20006;-78
2024/02/13 16:11:44;;;;;;;0.10;0.10;;;12.30;91.50;;;;;;6100769;23;20003;-78
2024/02/13 16:14:12;;;;;;;0.10;0.10;;;12.30;91.70;;;;;;6074455;23;20063;-78
2024/02/13 16:16:38;;;;;;;0.10;0.10;;;12.30;91.80;;;;;;6075704;23;20029;-78
2024/02/13 16:19:04;;;;;;;0.10;0.10;;;12.30;91.80;;;;;;6101363;23;19999;-78
2024/02/13 16:21:33;;;;;;;0.10;0.10;;;12.30;91.90;;;;;;6075400;23;20014;-78
2024/02/13 16:23:58;;;;;;;0.10;0.10;;;12.30;91.80;;;;;;6101333;23;20003;-78
2024/02/13 16:26:26;;;;;;;0.10;0.10;;;12.30;91.80;;;;;;6075875;23;20057;-78
2024/02/13 16:28:52;;;;;;;0.10;0.10;;;12.30;91.90;;;;;;6100918;23;20082;-78
2024/02/13 16:31:21;;;;;;;0.10;0.10;;;12.30;92.00;;;;;;6101167;23;20021;-78
2024/02/13 16:33:49;;;;;;;0.10;0.10;;;12.30;92.00;;;;;;6100599;23;20003;-78
2024/02/13 16:36:15;;;;;;;0.10;0.10;;;12.20;92.10;;;;;;6100773;23;20005;-78
2024/02/13 16:38:42;;;;;;;0.10;0.10;;;12.30;92.10;;;;;;6101127;23;20435;-78
2024/02/13 16:41:16;;;;;;;0.10;0.10;;;12.20;92.20;;;;;;6100898;23;20027;-78
2024/02/13 16:43:50;;;;;;;0.10;0.10;;;12.20;92.30;;;;;;6123583;23;20006;-78
2024/02/13 16:46:21;;;;;;;0.10;0.10;;;12.20;92.30;;;;;;6100994;23;20359;-78
2024/02/13 16:48:47;;;;;;;0.10;0.10;;;12.20;92.40;;;;;;6123594;23;20014;-78
2024/02/13 16:51:13;;;;;;;0.10;0.10;;;12.20;92.40;;;;;;6100877;23;20026;-78
2024/02/13 16:53:40;;;;;;;0.10;0.10;;;12.20;92.50;;;;;;6100721;23;20527;-78
2024/02/13 16:56:06;;;;;;;0.10;0.10;;;12.20;92.40;;;;;;6100916;23;20005;-78
2024/02/13 16:58:32;;;;;;;0.10;0.10;;;12.30;92.40;;;;;;6075428;23;20003;-78
2024/02/13 17:00:59;;;;;;;0.10;0.10;;;12.20;92.40;;;;;;6100627;23;20006;-78
2024/02/13 17:03:24;;;;;;;0.10;0.10;;;12.20;92.40;;;;;;6074583;23;20045;-78
2024/02/13 17:05:50;;;;;;;0.10;0.10;;;12.20;92.40;;;;;;6074911;23;20006;-78
2024/02/13 17:08:16;;;;;;;0.10;0.10;;;12.30;92.40;;;;;;6074699;23;20018;-82
2024/02/13 17:10:43;;;;;;;0.10;0.10;;;12.20;92.50;;;;;;6073315;23;20017;-78
2024/02/13 17:13:08;;;;;;;0.10;0.10;;;12.30;92.50;;;;;;6072281;23;20002;-79
2024/02/13 17:15:34;;;;;;;0.10;0.10;;;12.30;92.60;;;;;;6053702;23;20013;-78
2024/02/13 17:18:00;;;;;;;0.10;0.10;;;12.30;92.70;;;;;;6096118;23;20007;-78
2024/02/13 17:20:26;;;;;;;0.10;0.10;;;12.20;92.70;;;;;;6096956;23;20016;-78
2024/02/13 17:22:54;;;;;;;0.10;0.10;;;12.20;92.60;;;;;;6098184;23;20002;-78
2024/02/13 17:25:20;;;;;;;0.10;0.10;;;12.30;92.70;;;;;;6072434;23;20402;-79
2024/02/13 17:27:46;;;;;;;0.10;0.10;;;12.30;92.70;;;;;;6069400;23;20138;-80
2024/02/13 17:30:12;;;;;;;0.10;0.10;;;12.30;92.70;;;;;;6099862;23;20038;-81
2024/02/13 17:32:39;;;;;;;0.10;0.10;;;12.30;92.60;;;;;;6088623;23;20130;-79
2024/02/13 17:35:05;;;;;;;0.10;0.10;;;12.30;92.70;;;;;;6099021;23;20549;-79
2024/02/13 17:37:31;;;;;;;0.10;0.10;;;12.30;92.80;;;;;;6099756;23;20006;-86
2024/02/13 17:39:57;;;;;;;0.10;0.10;;;12.30;92.80;;;;;;6073998;23;20010;-82
2024/02/13 17:42:25;;;;;;;0.10;0.10;;;12.30;92.70;;;;;;6097185;23;20041;-81
2024/02/13 17:44:51;;;;;;;0.10;0.10;;;12.30;92.80;;;;;;6098495;23;20002;-81
2024/02/13 17:47:16;;;;;;;0.10;0.10;;;12.30;92.70;;;;;;6094874;23;20013;-80
2024/02/13 17:49:42;;;;;;;0.10;0.10;;;12.40;92.70;;;;;;6097817;23;20082;-81
2024/02/13 17:52:10;;;;;;;0.10;0.10;;;12.40;92.70;;;;;;6073741;23;20010;-85
2024/02/13 17:54:36;;;;;;;0.10;0.10;;;12.40;92.80;;;;;;6099903;23;20046;-78
2024/02/13 17:57:03;;;;;;;0.10;0.10;;;12.40;92.70;;;;;;6098194;23;19998;-78
2024/02/13 17:59:28;;;;;;;0.10;0.10;;;12.40;92.80;;;;;;6099286;23;20339;-78
2024/02/13 18:01:54;;;;;;;0.10;0.10;;;12.40;92.70;;;;;;6097412;23;20017;-78
2024/02/13 18:04:21;;;;;;;0.10;0.10;;;12.40;92.70;;;;;;6098649;23;20002;-78
2024/02/13 18:06:47;;;;;;;0.10;0.10;;;12.40;92.80;;;;;;6098112;23;20014;-77
2024/02/13 18:09:13;;;;;;;0.10;0.10;;;12.40;92.70;;;;;;6073292;23;20096;-77
2024/02/13 18:11:39;;;;;;;0.10;0.10;;;12.50;92.90;;;;;;6069382;23;20034;-78
2024/02/13 18:14:09;;;;;;;0.10;0.10;;;12.50;92.90;;;;;;6121325;23;20003;-78
2024/02/13 18:16:34;;;;;;;0.10;0.10;;;12.50;92.80;;;;;;6098904;23;20006;-78
2024/02/13 18:19:05;;;;;;;0.10;0.10;;;12.50;92.70;;;;;;6098843;23;20034;-78
2024/02/13 18:21:37;;;;;;;0.10;0.10;;;12.50;92.70;;;;;;6072670;23;20014;-77
2024/02/13 18:24:06;;;;;;;0.10;0.10;;;12.60;92.60;;;;;;6072794;23;20088;-76
2024/02/13 18:26:31;;;;;;;0.10;0.10;;;12.60;92.60;;;;;;6073006;23;20010;-76
2024/02/13 18:28:57;;;;;;;0.10;0.10;;;12.50;92.70;;;;;;6099645;23;20002;-84